createdAt,value
2023-09-17T00:01:22.088Z,55.00
2023-09-17T00:03:49.640Z,54.97
2023-09-17T00:06:16.845Z,54.20
2023-09-17T00:08:43.776Z,54.53
2023-09-17T00:11:11.132Z,55.60
2023-09-17T00:13:39.625Z,54.97
2023-09-17T00:16:07.044Z,54.65
2023-09-17T00:18:35.487Z,54.80
2023-09-17T00:21:02.373Z,54.90
2023-09-17T00:23:29.351Z,53.58
2023-09-17T00:25:56.388Z,54.58
2023-09-17T00:28:23.715Z,54.65
2023-09-17T00:30:50.827Z,54.65
2023-09-17T00:33:17.757Z,53.47
2023-09-17T00:35:46.238Z,53.83
2023-09-17T00:38:13.118Z,54.00
2023-09-17T00:40:41.451Z,53.38
2023-09-17T00:43:09.641Z,53.88
2023-09-17T00:45:36.895Z,53.30
2023-09-17T00:48:05.068Z,53.70
2023-09-17T00:50:32.497Z,52.70
2023-09-17T00:53:01.781Z,53.58
2023-09-17T00:55:30.992Z,54.88
2023-09-17T00:58:00.185Z,53.47
2023-09-17T01:00:27.978Z,54.55
2023-09-17T01:02:56.098Z,53.30
2023-09-17T01:05:23.768Z,53.85
2023-09-17T01:07:51.201Z,53.97
2023-09-17T01:10:22.761Z,54.08
2023-09-17T01:15:17.011Z,53.22
2023-09-17T01:17:44.030Z,54.25
2023-09-17T01:20:27.006Z,53.47
2023-09-17T01:23:00.347Z,53.50
2023-09-17T01:25:41.972Z,53.53
2023-09-17T01:28:13.504Z,53.90
2023-09-17T01:30:43.777Z,53.97
2023-09-17T01:33:11.113Z,53.50
2023-09-17T01:35:49.150Z,54.40
2023-09-17T01:38:19.933Z,54.35
2023-09-17T01:40:49.763Z,54.33
2023-09-17T01:43:19.511Z,54.47
2023-09-17T01:45:47.610Z,55.75
2023-09-17T01:48:16.645Z,55.70
2023-09-17T01:50:43.839Z,55.95
2023-09-17T01:53:13.061Z,54.42
2023-09-17T01:55:42.986Z,53.58
2023-09-17T01:58:12.668Z,54.40
2023-09-17T02:00:41.046Z,55.60
2023-09-17T02:03:09.516Z,53.92
2023-09-17T02:05:36.702Z,54.28
2023-09-17T02:08:05.057Z,54.22
2023-09-17T02:10:32.372Z,53.92
2023-09-17T02:12:59.565Z,54.65
2023-09-17T02:15:26.844Z,55.10
2023-09-17T02:17:55.140Z,55.05
2023-09-17T02:20:22.202Z,56.38
2023-09-17T02:22:51.061Z,56.85
2023-09-17T02:25:18.896Z,55.70
2023-09-17T02:27:47.590Z,55.25
2023-09-17T02:30:14.609Z,54.75
2023-09-17T02:32:42.940Z,55.63
2023-09-17T02:35:11.282Z,56.85
2023-09-17T02:37:39.564Z,55.47
2023-09-17T02:40:10.255Z,55.95
2023-09-17T02:42:38.242Z,57.22
2023-09-17T02:45:07.227Z,55.83
2023-09-17T02:47:37.142Z,55.80
2023-09-17T02:50:06.132Z,55.65
2023-09-17T02:52:35.594Z,56.70
2023-09-17T02:55:05.853Z,56.60
2023-09-17T02:57:32.968Z,57.45
2023-09-17T03:00:00.968Z,57.25
2023-09-17T03:02:29.560Z,55.72
2023-09-17T03:04:59.626Z,55.05
2023-09-17T03:07:27.645Z,54.63
2023-09-17T03:10:01.299Z,54.58
2023-09-17T03:12:29.592Z,54.38
2023-09-17T03:14:56.698Z,54.13
2023-09-17T03:17:23.845Z,54.42
2023-09-17T03:19:52.614Z,54.65
2023-09-17T03:22:19.582Z,54.70
2023-09-17T03:24:58.017Z,53.75
2023-09-17T03:27:33.742Z,55.00
2023-09-17T03:30:00.756Z,55.03
2023-09-17T03:32:28.491Z,55.42
2023-09-17T03:34:56.999Z,54.50
2023-09-17T03:37:24.021Z,53.95
2023-09-17T03:40:15.620Z,54.88
2023-09-17T03:42:47.598Z,54.72
2023-09-17T03:45:15.170Z,54.33
2023-09-17T03:47:43.792Z,55.00
2023-09-17T03:50:16.314Z,56.85
2023-09-17T03:52:48.829Z,55.95
2023-09-17T03:55:16.778Z,55.67
2023-09-17T03:57:46.057Z,54.67
2023-09-17T04:00:16.977Z,54.47
2023-09-17T04:02:46.456Z,54.03
2023-09-17T04:05:15.306Z,55.63
2023-09-17T04:07:45.445Z,54.67
2023-09-17T04:10:13.425Z,56.13
2023-09-17T04:12:41.969Z,55.72
2023-09-17T04:15:21.384Z,53.85
2023-09-17T04:17:51.420Z,53.95
2023-09-17T04:20:20.122Z,54.10
2023-09-17T04:22:51.136Z,53.67
2023-09-17T04:25:19.971Z,53.47
2023-09-17T04:27:49.759Z,53.75
2023-09-17T04:32:49.586Z,53.47
2023-09-17T04:35:18.581Z,53.78
2023-09-17T04:37:48.630Z,53.90
2023-09-17T04:40:15.941Z,54.70
2023-09-17T04:42:45.080Z,54.85
2023-09-17T04:45:31.685Z,54.63
2023-09-17T04:48:00.198Z,54.92
2023-09-17T04:50:28.716Z,55.10
2023-09-17T04:52:56.699Z,55.03
2023-09-17T04:55:24.422Z,54.55
2023-09-17T04:57:52.566Z,55.55
2023-09-17T05:00:21.420Z,54.33
2023-09-17T05:02:49.392Z,56.22
2023-09-17T05:05:21.063Z,54.50
2023-09-17T05:07:50.007Z,54.80
2023-09-17T05:10:18.069Z,54.72
2023-09-17T05:12:45.740Z,53.58
2023-09-17T05:15:13.392Z,56.17
2023-09-17T05:17:41.223Z,55.47
2023-09-17T05:20:09.964Z,54.55
2023-09-17T05:22:38.361Z,55.67
2023-09-17T05:25:09.433Z,54.90
2023-09-17T05:27:36.926Z,55.50
2023-09-17T05:30:05.142Z,56.33
2023-09-17T05:32:32.423Z,56.38
2023-09-17T05:35:01.076Z,55.25
2023-09-17T05:37:28.282Z,56.63
2023-09-17T05:39:56.741Z,55.97
2023-09-17T05:42:23.686Z,56.05
2023-09-17T05:44:50.621Z,57.22
2023-09-17T05:47:19.019Z,54.85
2023-09-17T05:49:46.046Z,56.38
2023-09-17T05:52:13.274Z,56.88
2023-09-17T05:54:40.598Z,56.28
2023-09-17T05:57:08.982Z,56.30
2023-09-17T05:59:36.438Z,56.47
2023-09-17T06:02:03.897Z,55.28
2023-09-17T06:04:31.085Z,57.33
2023-09-17T06:06:58.230Z,56.35
2023-09-17T06:09:25.146Z,57.97
2023-09-17T06:11:52.444Z,57.60
2023-09-17T06:14:20.909Z,58.08
2023-09-17T06:16:57.530Z,58.92
2023-09-17T06:19:27.095Z,58.53
2023-09-17T06:21:55.216Z,59.97
2023-09-17T06:24:22.464Z,61.45
2023-09-17T06:26:49.579Z,61.53
2023-09-17T06:29:17.161Z,61.50
2023-09-17T06:31:46.913Z,61.95
2023-09-17T06:34:14.190Z,63.35
2023-09-17T06:36:41.166Z,61.88
2023-09-17T06:39:08.839Z,64.05
2023-09-17T06:41:38.064Z,64.28
2023-09-17T06:44:07.024Z,64.00
2023-09-17T06:46:34.458Z,66.40
2023-09-17T06:49:03.084Z,66.95
2023-09-17T06:51:29.962Z,67.07
2023-09-17T06:53:57.144Z,68.65
2023-09-17T06:56:26.858Z,70.22
2023-09-17T06:58:53.787Z,68.07
2023-09-17T07:01:20.815Z,69.50
2023-09-17T07:03:51.434Z,69.25
2023-09-17T07:06:20.173Z,70.85
2023-09-17T07:08:47.778Z,71.57
2023-09-17T07:11:14.904Z,75.28
2023-09-17T07:13:41.935Z,70.90
2023-09-17T07:16:09.229Z,69.78
2023-09-17T07:18:36.258Z,66.30
2023-09-17T07:21:05.349Z,68.63
2023-09-17T07:23:33.979Z,70.72
2023-09-17T07:26:01.698Z,68.18
2023-09-17T07:28:30.441Z,71.13
2023-09-17T07:30:58.458Z,68.50
2023-09-17T07:33:25.782Z,69.53
2023-09-17T07:35:53.876Z,70.32
2023-09-17T07:38:20.924Z,69.35
2023-09-17T07:40:49.544Z,71.85
2023-09-17T07:43:16.672Z,69.93
2023-09-17T07:45:43.793Z,68.65
2023-09-17T07:48:10.944Z,68.55
2023-09-17T07:50:37.833Z,67.72
2023-09-17T07:53:05.381Z,67.25
2023-09-17T07:55:32.494Z,66.85
2023-09-17T07:58:00.874Z,66.53
2023-09-17T08:00:28.139Z,66.32
2023-09-17T08:02:55.151Z,66.68
2023-09-17T08:05:22.250Z,65.43
2023-09-17T08:07:49.762Z,66.60
2023-09-17T08:10:16.817Z,67.03
2023-09-17T08:12:43.744Z,64.32
2023-09-17T08:15:12.374Z,66.25
2023-09-17T08:17:39.341Z,66.32
2023-09-17T08:20:10.944Z,65.93
2023-09-17T08:22:38.926Z,67.07
2023-09-17T08:25:07.679Z,66.18
2023-09-17T08:27:34.576Z,67.00
2023-09-17T08:30:08.060Z,67.53
2023-09-17T08:32:36.347Z,65.55
2023-09-17T08:35:04.280Z,65.10
2023-09-17T08:37:31.319Z,66.18
2023-09-17T08:39:58.331Z,66.80
2023-09-17T08:42:27.739Z,66.47
2023-09-17T08:44:58.160Z,67.93
2023-09-17T08:47:25.366Z,65.95
2023-09-17T08:49:53.703Z,69.32
2023-09-17T08:52:22.032Z,68.40
2023-09-17T08:54:50.734Z,67.10
2023-09-17T08:57:22.946Z,67.68
2023-09-17T08:59:58.501Z,69.20
2023-09-17T09:02:30.609Z,66.55
2023-09-17T09:05:01.456Z,66.60
2023-09-17T09:07:29.765Z,66.28
2023-09-17T09:09:58.096Z,65.38
2023-09-17T09:12:25.723Z,67.35
2023-09-17T09:14:54.674Z,65.65
2023-09-17T09:17:21.672Z,65.57
2023-09-17T09:19:48.980Z,67.43
2023-09-17T09:22:17.274Z,65.68
2023-09-17T09:24:47.590Z,67.63
2023-09-17T09:27:15.311Z,66.68
2023-09-17T09:29:45.340Z,66.57
2023-09-17T09:32:13.210Z,67.97
2023-09-17T09:34:42.167Z,67.13
2023-09-17T09:37:10.078Z,66.07
2023-09-17T09:39:39.392Z,65.80
2023-09-17T09:42:07.631Z,65.53
2023-09-17T09:44:36.235Z,64.13
2023-09-17T09:47:03.947Z,64.65
2023-09-17T09:49:40.368Z,67.68
2023-09-17T09:52:07.339Z,64.70
2023-09-17T09:54:34.279Z,66.35
2023-09-17T09:57:03.176Z,66.28
2023-09-17T09:59:30.662Z,66.88
2023-09-17T10:01:57.852Z,67.70
2023-09-17T10:04:25.036Z,67.07
2023-09-17T10:06:52.232Z,68.05
2023-09-17T10:09:19.728Z,67.07
2023-09-17T10:11:47.649Z,66.20
2023-09-17T10:14:16.157Z,68.15
2023-09-17T10:16:44.632Z,69.07
2023-09-17T10:19:19.192Z,68.10
2023-09-17T10:21:47.903Z,66.72
2023-09-17T10:24:16.738Z,67.60
2023-09-17T10:26:44.824Z,69.18
2023-09-17T10:29:13.258Z,67.05
2023-09-17T10:31:43.563Z,67.53
2023-09-17T10:34:14.176Z,65.40
2023-09-17T10:36:43.518Z,66.75
2023-09-17T10:39:11.981Z,68.65
2023-09-17T10:41:39.501Z,63.90
2023-09-17T10:44:08.493Z,65.00
2023-09-17T10:46:37.821Z,66.65
2023-09-17T10:49:08.625Z,62.83
2023-09-17T10:51:37.010Z,62.30
2023-09-17T10:54:05.186Z,61.67
2023-09-17T10:56:33.195Z,63.47
2023-09-17T10:59:01.045Z,61.40
2023-09-17T11:01:31.134Z,62.03
2023-09-17T11:04:03.944Z,60.80
2023-09-17T11:06:35.990Z,61.70
2023-09-17T11:09:05.916Z,62.60
2023-09-17T11:11:35.980Z,60.50
2023-09-17T11:14:06.774Z,62.80
2023-09-17T11:16:37.295Z,62.33
2023-09-17T11:19:06.802Z,62.05
2023-09-17T11:21:39.315Z,63.47
2023-09-17T11:24:11.139Z,63.63
2023-09-17T11:26:40.279Z,63.75
2023-09-17T11:29:08.664Z,63.88
2023-09-17T11:31:37.331Z,63.97
2023-09-17T11:34:11.636Z,62.47
2023-09-17T11:36:39.974Z,63.35
2023-09-17T11:39:08.428Z,63.38
2023-09-17T11:41:41.706Z,63.85
2023-09-17T11:44:10.134Z,63.38
2023-09-17T11:46:38.554Z,63.33
2023-09-17T11:49:09.393Z,63.03
2023-09-17T11:51:46.476Z,64.80
2023-09-17T11:54:17.755Z,63.80
2023-09-17T11:56:47.916Z,63.92
2023-09-17T11:59:18.030Z,63.08
2023-09-17T12:01:48.582Z,63.05
2023-09-17T12:04:20.902Z,62.92
2023-09-17T12:06:50.396Z,64.28
2023-09-17T12:09:22.712Z,63.55
2023-09-17T12:11:51.551Z,63.97
2023-09-17T12:14:20.674Z,63.05
2023-09-17T12:16:49.428Z,63.80
2023-09-17T12:19:18.779Z,63.78
2023-09-17T12:21:49.063Z,62.78
2023-09-17T12:24:27.362Z,61.97
2023-09-17T12:27:20.633Z,61.92
2023-09-17T12:29:52.867Z,61.30
2023-09-17T12:32:23.178Z,63.03
2023-09-17T12:34:51.636Z,61.47
2023-09-17T12:37:18.627Z,62.42
2023-09-17T12:39:51.112Z,64.07
2023-09-17T12:42:18.637Z,63.30
2023-09-17T12:44:45.728Z,62.38
2023-09-17T12:47:13.299Z,61.88
2023-09-17T12:49:41.703Z,63.15
2023-09-17T12:52:08.923Z,63.50
2023-09-17T12:54:36.289Z,63.47
2023-09-17T12:57:05.641Z,63.08
2023-09-17T12:59:33.907Z,62.45
2023-09-17T13:02:04.750Z,63.25
2023-09-17T13:04:36.392Z,63.22
2023-09-17T13:07:05.304Z,61.70
2023-09-17T13:09:33.134Z,61.53
2023-09-17T13:12:02.231Z,61.83
2023-09-17T13:14:32.601Z,62.63
2023-09-17T13:17:00.124Z,62.80
2023-09-17T13:19:27.442Z,62.75
2023-09-17T13:21:54.850Z,62.17
2023-09-17T13:24:22.013Z,62.38
2023-09-17T13:26:48.988Z,60.55
2023-09-17T13:29:16.032Z,62.35
2023-09-17T13:31:51.256Z,61.83
2023-09-17T13:34:20.866Z,60.97
2023-09-17T13:36:48.586Z,61.70
2023-09-17T13:39:15.830Z,61.85
2023-09-17T13:41:44.036Z,61.95
2023-09-17T13:44:11.261Z,61.85
2023-09-17T13:46:45.816Z,63.42
2023-09-17T13:49:14.379Z,62.28
2023-09-17T13:51:41.370Z,62.53
2023-09-17T13:54:08.295Z,61.67
2023-09-17T13:56:36.788Z,60.85
2023-09-17T13:59:04.192Z,61.40
2023-09-17T14:01:32.046Z,62.10
2023-09-17T14:03:59.020Z,60.67
2023-09-17T14:06:27.269Z,60.63
2023-09-17T14:08:54.450Z,60.13
2023-09-17T14:11:25.338Z,61.58
2023-09-17T14:13:52.361Z,61.05
2023-09-17T14:16:21.324Z,61.70
2023-09-17T14:18:51.397Z,61.67
2023-09-17T14:21:20.476Z,61.78
2023-09-17T14:23:48.723Z,61.55
2023-09-17T14:26:15.775Z,60.25
2023-09-17T14:28:42.946Z,61.95
2023-09-17T14:31:09.904Z,61.20
2023-09-17T14:33:36.899Z,60.47
2023-09-17T14:36:04.340Z,60.50
2023-09-17T14:38:31.282Z,60.63
2023-09-17T14:40:59.721Z,60.28
2023-09-17T14:43:26.759Z,61.25
2023-09-17T14:45:53.754Z,60.53
2023-09-17T14:48:20.738Z,60.55
2023-09-17T14:50:50.222Z,59.92
2023-09-17T14:53:17.259Z,61.00
2023-09-17T14:55:47.546Z,60.97
2023-09-17T14:58:18.076Z,59.88
2023-09-17T15:00:45.402Z,60.97
2023-09-17T15:03:13.066Z,60.53
2023-09-17T15:05:40.824Z,59.08
2023-09-17T15:08:07.816Z,60.83
2023-09-17T15:10:34.817Z,61.28
2023-09-17T15:13:01.727Z,61.53
2023-09-17T15:15:31.009Z,61.10
2023-09-17T15:17:59.430Z,61.40
2023-09-17T15:20:26.833Z,61.13
2023-09-17T15:22:53.741Z,59.35
2023-09-17T15:25:20.742Z,60.38
2023-09-17T15:27:47.929Z,59.75
2023-09-17T15:30:15.032Z,60.97
2023-09-17T15:32:43.540Z,60.30
2023-09-17T15:35:18.063Z,59.92
2023-09-17T15:37:47.699Z,60.42
2023-09-17T15:40:15.216Z,60.28
2023-09-17T15:42:45.196Z,59.60
2023-09-17T15:45:12.210Z,59.07
2023-09-17T15:47:41.542Z,59.58
2023-09-17T15:50:12.761Z,60.55
2023-09-17T15:52:40.009Z,59.00
2023-09-17T15:55:07.753Z,59.08
2023-09-17T15:57:34.946Z,58.83
2023-09-17T16:00:01.927Z,60.00
2023-09-17T16:02:39.315Z,58.42
2023-09-17T16:05:06.884Z,59.95
2023-09-17T16:07:35.641Z,59.53
2023-09-17T16:10:02.613Z,59.65
2023-09-17T16:12:29.556Z,59.40
2023-09-17T16:14:56.516Z,60.15
2023-09-17T16:17:23.509Z,59.22
2023-09-17T16:19:58.461Z,59.05
2023-09-17T16:22:26.160Z,59.47
2023-09-17T16:24:54.792Z,59.03
2023-09-17T16:27:22.103Z,59.72
2023-09-17T16:29:49.131Z,59.22
2023-09-17T16:32:16.644Z,59.80
2023-09-17T16:34:43.907Z,58.47
2023-09-17T16:37:10.895Z,58.50
2023-09-17T16:39:38.349Z,59.50
2023-09-17T16:42:06.913Z,59.80
2023-09-17T16:44:33.876Z,58.63
2023-09-17T16:47:01.538Z,59.50
2023-09-17T16:49:28.507Z,58.97
2023-09-17T16:51:55.468Z,58.00
2023-09-17T16:54:22.506Z,59.05
2023-09-17T16:56:49.872Z,58.08
2023-09-17T16:59:18.403Z,58.38
2023-09-17T17:01:46.255Z,58.17
2023-09-17T17:04:14.088Z,57.90
2023-09-17T17:06:41.220Z,57.80
2023-09-17T17:09:09.287Z,58.30
2023-09-17T17:11:36.449Z,58.65
2023-09-17T17:14:03.494Z,56.90
2023-09-17T17:16:32.913Z,57.78
2023-09-17T17:19:00.042Z,58.65
2023-09-17T17:21:26.964Z,58.13
2023-09-17T17:23:54.135Z,58.85
2023-09-17T17:26:21.838Z,58.63
2023-09-17T17:28:48.964Z,59.22
2023-09-17T17:31:16.004Z,59.78
2023-09-17T17:33:45.444Z,58.95
2023-09-17T17:36:12.417Z,59.97
2023-09-17T17:38:39.328Z,60.53
2023-09-17T17:41:08.164Z,59.38
2023-09-17T17:43:38.109Z,59.08
2023-09-17T17:46:05.286Z,59.08
2023-09-17T17:48:33.052Z,59.78
2023-09-17T17:51:01.423Z,61.80
2023-09-17T17:53:28.400Z,61.22
2023-09-17T17:55:55.598Z,61.42
2023-09-17T17:58:22.504Z,66.80
2023-09-17T18:00:50.289Z,66.97
2023-09-17T18:03:18.284Z,70.43
2023-09-17T18:05:45.410Z,69.18
2023-09-17T18:08:14.081Z,70.60
2023-09-17T18:10:41.143Z,69.75
2023-09-17T18:13:08.070Z,70.05
2023-09-17T18:15:36.920Z,69.75
2023-09-17T18:18:04.083Z,71.18
2023-09-17T18:20:31.694Z,70.80
2023-09-17T18:22:58.775Z,67.47
2023-09-17T18:25:27.281Z,69.28
2023-09-17T18:27:54.330Z,67.20
2023-09-17T18:30:21.230Z,68.18
2023-09-17T18:32:48.384Z,69.40
2023-09-17T18:35:15.341Z,70.60
2023-09-17T18:37:42.784Z,68.95
2023-09-17T18:40:10.526Z,65.53
2023-09-17T18:42:38.883Z,66.78
2023-09-17T18:45:09.670Z,66.85
2023-09-17T18:47:38.153Z,65.97
2023-09-17T18:50:06.876Z,66.53
2023-09-17T18:52:33.981Z,67.03
2023-09-17T18:55:02.478Z,65.57
2023-09-17T18:57:29.528Z,63.80
2023-09-17T18:59:58.004Z,63.50
2023-09-17T19:02:25.170Z,64.80
2023-09-17T19:04:52.271Z,65.78
2023-09-17T19:07:19.315Z,62.63
2023-09-17T19:09:46.229Z,65.50
2023-09-17T19:12:13.250Z,61.70
2023-09-17T19:14:41.387Z,65.40
2023-09-17T19:17:09.881Z,65.65
2023-09-17T19:19:36.816Z,63.50
2023-09-17T19:22:10.388Z,63.63
2023-09-17T19:24:38.256Z,64.60
2023-09-17T19:27:06.068Z,64.97
2023-09-17T19:29:33.123Z,62.58
2023-09-17T19:32:00.212Z,64.78
2023-09-17T19:34:28.760Z,65.07
2023-09-17T19:36:56.934Z,62.75
2023-09-17T19:39:23.851Z,64.00
2023-09-17T19:41:50.815Z,62.67
2023-09-17T19:44:19.682Z,62.28
2023-09-17T19:46:47.975Z,62.58
2023-09-17T19:49:14.911Z,61.35
2023-09-17T19:51:43.196Z,61.22
2023-09-17T19:54:11.157Z,63.13
2023-09-17T19:56:38.436Z,63.13
2023-09-17T19:59:06.172Z,64.47
2023-09-17T20:01:33.186Z,63.92
2023-09-17T20:04:00.986Z,62.03
2023-09-17T20:06:43.609Z,65.32
2023-09-17T20:09:22.662Z,62.75
2023-09-17T20:11:49.638Z,61.95
2023-09-17T20:14:19.050Z,62.28
2023-09-17T20:16:46.124Z,61.45
2023-09-17T20:19:13.143Z,63.35
2023-09-17T20:21:40.219Z,62.50
2023-09-17T20:24:07.820Z,61.92
2023-09-17T20:26:39.128Z,62.28
2023-09-17T20:31:33.167Z,62.72
2023-09-17T20:34:00.916Z,62.03
2023-09-17T20:36:28.112Z,60.67
2023-09-17T20:38:55.314Z,61.03
2023-09-17T20:41:24.162Z,64.32
2023-09-17T20:43:53.262Z,62.13
2023-09-17T20:46:20.168Z,60.33
2023-09-17T20:48:47.400Z,63.55
2023-09-17T20:51:14.324Z,59.15
2023-09-17T20:53:41.223Z,57.90
2023-09-17T20:56:08.237Z,59.10
2023-09-17T20:58:36.312Z,59.63
2023-09-17T21:01:05.258Z,58.97
2023-09-17T21:03:32.683Z,58.85
2023-09-17T21:05:59.774Z,58.75
2023-09-17T21:08:26.840Z,58.60
2023-09-17T21:10:54.036Z,59.40
2023-09-17T21:13:21.024Z,58.30
2023-09-17T21:15:48.240Z,58.10
2023-09-17T21:18:16.819Z,58.58
2023-09-17T21:20:43.815Z,57.45
2023-09-17T21:23:10.915Z,57.88
2023-09-17T21:25:38.222Z,59.35
2023-09-17T21:28:06.569Z,59.30
2023-09-17T21:30:34.328Z,57.80
2023-09-17T21:33:01.370Z,58.15
2023-09-17T21:35:30.318Z,56.17
2023-09-17T21:37:57.349Z,59.25
2023-09-17T21:40:24.286Z,58.33
2023-09-17T21:42:51.262Z,57.60
2023-09-17T21:45:19.875Z,57.95
2023-09-17T21:47:47.076Z,58.90
2023-09-17T21:50:14.106Z,56.90
2023-09-17T21:52:42.621Z,58.20
2023-09-17T21:55:09.919Z,59.10
2023-09-17T21:57:36.975Z,58.33
2023-09-17T22:00:04.692Z,57.45
2023-09-17T22:02:31.657Z,59.83
2023-09-17T22:04:58.816Z,58.17
2023-09-17T22:07:25.717Z,59.35
2023-09-17T22:09:54.180Z,58.90
2023-09-17T22:12:21.254Z,59.45
2023-09-17T22:14:48.360Z,57.17
2023-09-17T22:17:17.685Z,56.10
2023-09-17T22:19:51.842Z,57.35
2023-09-17T22:22:18.923Z,56.97
2023-09-17T22:24:45.918Z,55.42
2023-09-17T22:27:15.955Z,54.70
2023-09-17T22:29:43.160Z,55.17
2023-09-17T22:32:10.216Z,54.97
2023-09-17T22:34:37.251Z,55.28
2023-09-17T22:37:04.409Z,55.75
2023-09-17T22:39:31.311Z,54.65
2023-09-17T22:41:58.410Z,55.83
2023-09-17T22:44:26.783Z,55.38
2023-09-17T22:46:53.695Z,55.83
2023-09-17T22:49:20.762Z,55.47
2023-09-17T22:51:47.782Z,55.65
2023-09-17T22:54:14.696Z,55.92
2023-09-17T22:56:41.605Z,56.40
2023-09-17T22:59:10.106Z,55.85
2023-09-17T23:01:42.005Z,56.03
2023-09-17T23:04:09.110Z,56.90
2023-09-17T23:06:36.552Z,56.92
2023-09-17T23:09:05.085Z,56.67
2023-09-17T23:11:32.859Z,56.05
2023-09-17T23:14:00.355Z,58.00
2023-09-17T23:16:27.590Z,56.45
2023-09-17T23:18:56.875Z,56.55
2023-09-17T23:21:23.941Z,57.30
2023-09-17T23:23:54.248Z,57.33
2023-09-17T23:26:24.850Z,57.13
2023-09-17T23:28:52.239Z,55.22
2023-09-17T23:31:19.493Z,56.30
2023-09-17T23:33:46.501Z,56.58
2023-09-17T23:36:14.837Z,56.60
2023-09-17T23:38:41.783Z,56.53
2023-09-17T23:41:09.729Z,56.45
2023-09-17T23:43:38.853Z,56.55
2023-09-17T23:46:05.991Z,58.83
2023-09-17T23:48:32.930Z,57.55
2023-09-17T23:51:01.017Z,55.65
2023-09-17T23:53:29.513Z,57.05
2023-09-17T23:55:57.063Z,58.75
2023-09-17T23:58:24.041Z,59.00
